Weather observations for the past three days for
VC Bird International Airport
Metric (Imperial)
Date Time (ast) Wind (kph) Vis. (km) Weather Sky Cond. Temperature (ºC) Relative Humidity Wind Chill (°C) Heat Index (°C) Pressure Precipitation (cm)
Air Dwpt 6 hour altimeter (cm) sea level (mb) 1 hr 3 hr 6 hr
Max. Min.
06 09:00 E 15 0.00 Mostly Cloudy BKN018 30 26 79% 37 0 0.0
06 08:00 E 11 0.00 Partly Cloudy SCT018 29 26 84% 36 0 0.0
06 07:00 SE 7 0.00 Partly Cloudy SCT018 27 24 84% 30 0 0.0
06 06:00 E 7 0.00 Showers in Vicinity FEW018TCU 28 28 100% 36 0 0.0
06 05:00 E 7 0.00 Showers in Vicinity BKN018 28 26 89% 34 0 0.0
06 04:00 SE 7 0.00 Showers in Vicinity SCT020 28 26 89% 34 0 0.0
06 03:00 SE 6 0.00 Showers in Vicinity BKN018 28 26 89% 34 0 0.0
06 02:00 E 17 0.00 A Few Clouds FEW020 28 26 89% 34 0 0.0
06 01:00 E 11 0.00 A Few Clouds FEW020 29 26 84% 36 0 0.0
06 00:00 E 17 0.00 Showers in Vicinity SCT017 29 26 84% 36 0 0.0
05 23:00 E 15 0.00 Partly Cloudy SCT017 29 26 84% 36 0 0.0
05 21:00 E 13 0.00 Showers in Vicinity SCT018 28 27 94% 35 0 0.0
05 20:00 E 15 0.00 Showers in Vicinity BKN016 28 27 94% 35 0 0.0
05 19:00 E 13 0.00 Partly Cloudy SCT017 29 26 84% 36 0 0.0
05 18:00 E 13 0.00 Showers in Vicinity SCT018 28 26 89% 34 0 0.0
05 17:00 E 15 0.00 A Few Clouds FEW018 30 27 84% 39 0 0.0
05 16:00 E 20 0.00 Light Showers Rain SCT018 31 26 75% 39 0 0.0
05 13:00 E 20 0.00 Showers in Vicinity SCT018 31 27 79% 41 0 0.0
05 12:00 E 19 0.00 Partly Cloudy SCT018 31 26 75% 39 0 0.0
05 11:00 E 9 0.00 Showers in Vicinity SCT018 30 27 84% 39 0 0.0
05 10:00 E 9 0.00 Light Showers Rain SCT018 28 26 89% 34 0 0.0
05 09:00 E 11 0.00 Showers in Vicinity SCT018 30 27 84% 39 0 0.0
05 08:00 SE 11 0.00 Showers in Vicinity BKN018 29 27 89% 37 0 0.0
05 07:00 SE 6 0.00 Showers in Vicinity FEW016TCU SCT018 28 26 89% 34 0 0.0
05 06:00 Vrbl 4 0.00 Showers in Vicinity SCT014CB BKN018 27 26 94% 31 0 0.0
05 05:00 SE 7 0.00 Light Showers Rain BKN017 28 26 89% 34 0 0.0
05 04:00 E 9 0.00 Showers in Vicinity SCT018 28 26 89% 34 0 0.0
05 03:00 E 9 0.00 Partly Cloudy SCT018 28 26 89% 34 0 0.0
05 02:00 E 7 0.00 Partly Cloudy SCT018 28 26 89% 34 0 0.0
05 01:00 E 15 0.00 A Few Clouds FEW020 28 26 89% 34 0 0.0
05 00:00 E 9 0.00 Showers in Vicinity FEW018 BKN036 28 26 89% 34 0 0.0
04 23:00 E 15 0.00 Showers in Vicinity SCT018 28 26 89% 34 0 0.0
04 22:00 E 7 0.00 Showers in Vicinity SCT018 28 27 94% 35 0 0.0
04 21:00 E 11 0.00 Showers in Vicinity SCT018TCU 29 26 84% 36 0 0.0
04 20:00 E 13 0.00 Showers in Vicinity SCT018 29 26 84% 36 0 0.0
04 19:00 E 15 0.00 Partly Cloudy SCT020 29 26 84% 36 0 0.0
04 18:00 E 13 0.00 A Few Clouds FEW022 30 26 79% 37 0 0.0
04 17:00 E 17 0.00 A Few Clouds FEW021 30 27 84% 39 0 0.0
04 16:00 E 15 0.00 A Few Clouds FEW021 31 26 75% 39 0 0.0
04 15:00 E 20 0.00 A Few Clouds FEW021 31 27 79% 41 0 0.0
04 14:00 E 19 0.00 A Few Clouds FEW021 31 27 79% 41 0 0.0
04 13:00 E 19 0.00 Showers in Vicinity SCT019 31 26 75% 39 0 0.0
04 12:00 E 20 0.00 Showers in Vicinity FEW018 32 25 67% 39 0 0.0
04 11:00 E 19 0.00 Showers in Vicinity FEW018 31 24 66% 37 0 0.0
04 10:00 E 19 0.00 Showers in Vicinity FEW018 31 25 70% 38 0 0.0
04 09:00 E 19 0.00 Showers in Vicinity SCT017TCU 28 24 79% 32 0 0.0
04 08:00 E 13 0.00 Partly Cloudy SCT017 28 24 79% 32 0 0.0
04 07:00 E 7 0.00 Showers in Vicinity SCT016TCU 28 26 89% 34 0 0.0
04 06:00 Vrbl 2 0.00 Partly Cloudy SCT017 27 25 89% 31 0 0.0
04 04:00 E 11 0.00 A Few Clouds FEW018 28 25 84% 33 0 0.0
04 03:00 E 11 0.00 A Few Clouds FEW018 28 25 84% 33 0 0.0
04 02:00 E 13 0.00 A Few Clouds FEW018 28 25 84% 33 0 0.0
04 01:00 E 15 0.00 A Few Clouds FEW018 28 25 84% 33 0 0.0
04 00:00 E 15 0.00 Showers in Vicinity FEW016CB SCT018 29 27 89% 37 0 0.0
03 23:00 E 17 0.00 Showers in Vicinity SCT018 29 26 84% 36 0 0.0
03 22:00 E 17 0.00 Showers in Vicinity SCT018 29 26 84% 36 0 0.0
03 21:00 E 17 0.00 Mostly Cloudy BKN019 29 26 84% 36 0 0.0
03 20:00 E 15 0.00 Mostly Cloudy FEW016CB BKN020 28 26 89% 34 0 0.0
03 19:00 E 13 0.00 A Few Clouds FEW016CB 29 25 79% 35 0 0.0
03 18:00 E 13 0.00 Partly Cloudy FEW016CB SCT020 29 25 79% 35 0 0.0
03 17:00 E 13 0.00 Mostly Cloudy BKN020 30 25 75% 36 0 0.0
03 16:00 E 19 0.00 Partly Cloudy FEW020 SCT036 31 26 75% 39 0 0.0
03 15:00 E 19 0.00 A Few Clouds FEW020 31 25 70% 38 0 0.0
03 14:00 E 19 0.00 A Few Clouds FEW020 31 24 66% 37 0 0.0
03 13:00 E 20 0.00 A Few Clouds FEW020 31 25 70% 38 0 0.0
03 12:00 E 20 0.00 Partly Cloudy SCT021 31 25 70% 38 0 0.0
03 11:00 E 20 0.00 Partly Cloudy SCT021 31 24 66% 37 0 0.0
03 10:00 E 20 0.00 A Few Clouds FEW020 31 24 66% 37 0 0.0
Date Time (ast) Wind (kph) Vis. (km) Weather Sky Cond. Air Dwpt Max. Min. Relative Humidity Wind Chill (°C) Heat Index (°C) altimeter (cm) sea level (mb) 1 hr 3 hr 6 hr
6 hour
Temperature (ºC) Pressure Precipitation (cm)